Time;durP1;ratioP1;P1;durP2;ratioP2;P2;SDS_P1;SDS_P2;PMS_P1;PMS_P2;Temp;Humidity;BMP_temperature;BMP_pressure;BME280_temperature;BME280_humidity;BME280_pressure;Samples;Min_cycle;Max_cycle;Signal;HPM_P1;HPM_P2
2022/01/18 00:01:30;;;;;;;19.55;5.47;;;7.20;99.90;;;;;;5078638;28;20052;-81
2022/01/18 00:03:57;;;;;;;30.30;4.38;;;7.00;99.90;;;;;;5083827;28;20054;-82
2022/01/18 00:06:23;;;;;;;21.05;4.28;;;7.10;99.90;;;;;;5085288;28;20040;-80
2022/01/18 00:08:49;;;;;;;29.10;4.55;;;7.00;99.90;;;;;;5083116;28;20107;-80
2022/01/18 00:11:18;;;;;;;23.08;6.70;;;6.90;99.90;;;;;;5077390;28;20048;-80
2022/01/18 00:13:49;;;;;;;20.83;5.88;;;6.90;99.90;;;;;;5082788;28;20047;-81
2022/01/18 00:18:52;;;;;;;22.52;5.60;;;6.80;99.90;;;;;;5077385;28;20420;-81
2022/01/18 00:21:32;;;;;;;34.10;5.53;;;6.70;99.90;;;;;;5094398;28;20040;-82
2022/01/18 00:23:59;;;;;;;25.42;5.82;;;6.60;99.90;;;;;;5078379;28;20115;-80
2022/01/18 00:26:28;;;;;;;25.17;4.72;;;6.50;99.90;;;;;;5079559;28;20045;-80
2022/01/18 00:29:04;;;;;;;31.40;6.15;;;6.60;99.90;;;;;;5087965;28;20567;-80
2022/01/18 00:31:49;;;;;;;28.05;5.20;;;6.60;99.90;;;;;;5092422;28;20054;-76
2022/01/18 00:39:12;;;;;;;27.20;4.47;;;6.80;99.90;;;;;;5079193;28;20493;-78
2022/01/18 00:41:40;;;;;;;25.35;7.00;;;6.80;99.90;;;;;;5092906;28;20090;-82
2022/01/18 00:44:09;;;;;;;27.45;5.05;;;7.60;99.90;;;;;;5079338;28;20083;-82
2022/01/18 00:46:36;;;;;;;24.90;5.53;;;6.90;99.90;;;;;;5077102;28;20392;-83
2022/01/18 00:49:03;;;;;;;16.85;5.00;;;7.10;99.90;;;;;;5085240;28;20045;-82
2022/01/18 00:51:37;;;;;;;21.38;5.30;;;6.90;99.90;;;;;;5090767;28;20055;-82
2022/01/18 00:54:04;;;;;;;21.45;4.95;;;7.00;99.90;;;;;;5078364;28;20044;-82
2022/01/18 00:56:31;;;;;;;25.67;5.47;;;7.00;99.90;;;;;;5118543;28;20052;-83
2022/01/18 00:58:59;;;;;;;33.08;6.20;;;7.00;99.90;;;;;;5078433;28;20052;-82
2022/01/18 01:01:28;;;;;;;22.67;5.68;;;7.00;99.90;;;;;;5090859;28;20036;-82
2022/01/18 01:03:57;;;;;;;27.83;5.82;;;7.00;99.90;;;;;;5097252;28;20056;-83
2022/01/18 01:06:23;;;;;;;27.38;5.47;;;7.00;99.90;;;;;;5098407;28;20078;-80
2022/01/18 01:08:50;;;;;;;26.77;4.88;;;7.10;99.90;;;;;;5082293;28;20104;-80
2022/01/18 01:11:16;;;;;;;20.25;4.65;;;7.00;99.90;;;;;;5085227;28;20044;-81
2022/01/18 01:13:45;;;;;;;21.52;4.32;;;7.00;99.90;;;;;;5064871;28;20048;-82
2022/01/18 01:19:18;;;;;;;19.90;3.75;;;7.10;99.90;;;;;;5090610;28;20056;-81
2022/01/18 01:36:13;;;;;;;22.33;5.63;;;7.10;99.90;;;;;;5088102;28;20049;-81
2022/01/18 01:45:48;;;;;;;19.55;4.18;;;7.00;99.90;;;;;;5081136;28;20275;-81
2022/01/18 01:48:14;;;;;;;20.77;4.75;;;7.10;99.90;;;;;;5080432;28;20044;-83
2022/01/18 01:53:25;;;;;;;24.45;4.45;;;7.00;99.90;;;;;;5094816;28;20111;-83
2022/01/18 01:55:52;;;;;;;21.80;4.85;;;7.00;99.90;;;;;;5111559;28;20047;-83
2022/01/18 01:58:20;;;;;;;23.02;4.80;;;6.90;99.90;;;;;;5080898;28;20129;-82
2022/01/18 02:00:50;;;;;;;22.92;5.82;;;6.90;99.90;;;;;;5087665;28;20040;-82
2022/01/18 02:03:17;;;;;;;23.00;4.50;;;6.90;99.90;;;;;;5079766;28;20542;-81
2022/01/18 02:05:43;;;;;;;19.30;4.55;;;6.90;99.90;;;;;;5081210;28;20123;-82
2022/01/18 02:08:10;;;;;;;27.58;5.22;;;6.90;99.90;;;;;;5079541;28;20099;-82
2022/01/18 02:10:37;;;;;;;25.63;4.78;;;7.10;99.90;;;;;;5083752;28;20044;-82
2022/01/18 02:13:05;;;;;;;30.08;5.07;;;6.90;99.90;;;;;;5081243;28;20051;-83
2022/01/18 02:15:31;;;;;;;25.20;4.45;;;6.90;99.90;;;;;;5095763;28;20056;-82
2022/01/18 02:23:30;;;;;;;24.27;5.05;;;6.80;99.90;;;;;;5094029;28;20076;-83
2022/01/18 02:25:56;;;;;;;18.58;5.18;;;6.80;99.90;;;;;;5084266;28;20048;-82
2022/01/18 02:28:24;;;;;;;18.35;4.07;;;6.80;99.90;;;;;;5080083;28;20084;-82
2022/01/18 02:30:50;;;;;;;18.77;4.32;;;6.80;99.90;;;;;;5093691;28;20059;-82
2022/01/18 02:33:16;;;;;;;23.67;5.10;;;6.80;99.90;;;;;;5083468;28;20574;-81
2022/01/18 02:35:44;;;;;;;16.60;4.00;;;6.70;99.90;;;;;;5085958;28;20047;-80
2022/01/18 02:38:10;;;;;;;22.38;5.05;;;6.70;99.90;;;;;;5079226;28;20074;-82
2022/01/18 02:40:36;;;;;;;25.02;5.80;;;6.70;99.90;;;;;;5078615;28;20112;-83
2022/01/18 02:43:46;;;;;;;23.63;4.97;;;6.70;99.90;;;;;;5079039;28;20405;-83
2022/01/18 02:45:53;;;;;;;23.05;5.68;;;6.70;99.90;;;;;;5079293;28;20056;-80
2022/01/18 02:48:19;;;;;;;19.08;4.95;;;6.70;99.90;;;;;;5092841;28;20051;-80
2022/01/18 02:50:46;;;;;;;20.92;4.93;;;6.60;99.90;;;;;;5099090;28;20036;-80
2022/01/18 02:53:12;;;;;;;25.00;5.68;;;6.60;99.90;;;;;;5085020;28;20062;-80
2022/01/18 02:55:38;;;;;;;23.58;6.43;;;6.60;99.90;;;;;;5103615;28;20396;-79
2022/01/18 02:58:09;;;;;;;26.77;5.68;;;6.50;99.90;;;;;;5100435;28;20048;-75
2022/01/18 03:03:10;;;;;;;23.25;5.20;;;6.50;99.90;;;;;;5089428;28;20137;-77
2022/01/18 03:03:30;;;;;;;23.55;5.78;;;6.50;99.90;;;;;;5079794;28;20105;-81
2022/01/18 03:05:57;;;;;;;31.52;5.57;;;6.40;99.90;;;;;;5088563;28;20052;-81
2022/01/18 03:08:24;;;;;;;16.55;4.35;;;6.50;99.90;;;;;;5080312;28;20362;-81
2022/01/18 03:10:50;;;;;;;28.17;6.30;;;6.50;99.90;;;;;;5079324;28;20053;-81
2022/01/18 03:13:18;;;;;;;23.63;5.63;;;6.40;99.90;;;;;;5080282;28;20036;-81
2022/01/18 03:15:44;;;;;;;31.75;5.90;;;6.50;99.90;;;;;;5096758;28;20074;-81
2022/01/18 03:18:11;;;;;;;28.58;6.43;;;6.50;99.90;;;;;;5099228;28;20040;-81
2022/01/18 03:20:37;;;;;;;29.65;6.90;;;6.50;99.90;;;;;;5099214;28;20055;-81
2022/01/18 03:23:11;;;;;;;35.42;6.88;;;6.50;99.90;;;;;;5088176;28;20062;-81
2022/01/18 03:25:52;;;;;;;23.33;5.05;;;6.50;99.90;;;;;;5086720;28;20115;-80
2022/01/18 03:28:18;;;;;;;24.70;5.78;;;6.50;99.90;;;;;;5091762;28;20067;-81
2022/01/18 03:30:47;;;;;;;27.73;4.93;;;6.50;99.90;;;;;;5087470;28;20438;-80
2022/01/18 03:33:18;;;;;;;29.83;6.22;;;6.50;99.90;;;;;;5099470;28;20097;-80
2022/01/18 03:35:45;;;;;;;18.92;4.90;;;6.50;99.90;;;;;;5094371;28;20491;-81
2022/01/18 03:38:12;;;;;;;22.33;4.68;;;6.50;99.90;;;;;;5086010;28;20396;-81
2022/01/18 03:40:38;;;;;;;24.77;4.93;;;6.50;99.90;;;;;;5089454;28;20067;-81
2022/01/18 03:43:07;;;;;;;20.45;4.95;;;6.50;99.90;;;;;;5079797;28;20044;-81
2022/01/18 03:45:40;;;;;;;22.65;5.47;;;6.50;99.90;;;;;;5076811;28;20052;-80
2022/01/18 03:48:10;;;;;;;17.65;4.65;;;6.40;99.90;;;;;;5084311;28;20038;-80
2022/01/18 03:50:36;;;;;;;22.70;5.25;;;6.50;99.90;;;;;;5099209;28;20109;-80
2022/01/18 03:53:02;;;;;;;22.40;4.88;;;6.40;99.90;;;;;;5086472;28;20048;-80
2022/01/18 03:55:28;;;;;;;15.55;4.43;;;6.50;99.90;;;;;;5101294;28;20122;-80
2022/01/18 03:57:54;;;;;;;22.55;5.38;;;6.40;99.90;;;;;;5110057;28;20053;-80
2022/01/18 04:00:23;;;;;;;15.80;4.80;;;6.40;99.90;;;;;;5077380;28;20115;-80
2022/01/18 04:02:50;;;;;;;26.55;5.32;;;6.40;99.90;;;;;;5081751;28;20068;-80
2022/01/18 04:05:16;;;;;;;20.23;4.43;;;6.40;99.90;;;;;;5080532;28;20091;-80
2022/01/18 04:07:42;;;;;;;22.77;4.35;;;6.40;99.90;;;;;;5085271;28;20048;-80
2022/01/18 04:10:09;;;;;;;19.33;4.32;;;6.30;99.90;;;;;;5097749;28;20051;-77
2022/01/18 04:12:35;;;;;;;20.25;4.32;;;6.40;99.90;;;;;;5082216;28;20522;-79
2022/01/18 04:15:03;;;;;;;12.07;3.95;;;6.30;99.90;;;;;;5089951;28;20070;-80
2022/01/18 04:18:23;;;;;;;19.55;4.53;;;6.40;99.90;;;;;;5080407;28;20048;-80
2022/01/18 04:26:02;;;;;;;14.80;4.63;;;6.30;99.90;;;;;;5069050;28;20051;-80
2022/01/18 04:30:56;;;;;;;21.35;4.72;;;6.30;99.90;;;;;;5082955;28;20415;-80
2022/01/18 04:33:22;;;;;;;17.05;5.30;;;6.30;99.90;;;;;;5081514;28;20048;-80
2022/01/18 04:35:48;;;;;;;20.05;4.30;;;6.30;99.90;;;;;;5083426;28;20522;-80
2022/01/18 04:38:14;;;;;;;18.15;3.55;;;6.30;99.90;;;;;;5084008;28;20040;-80
2022/01/18 04:40:43;;;;;;;20.40;3.55;;;6.30;99.90;;;;;;5062937;28;20055;-81
2022/01/18 04:48:29;;;;;;;13.98;3.55;;;6.30;99.90;;;;;;5090279;28;20049;-80
2022/01/18 04:50:59;;;;;;;16.65;2.78;;;6.30;99.90;;;;;;5077550;28;20048;-79
2022/01/18 04:53:27;;;;;;;8.57;2.95;;;6.30;99.90;;;;;;5078423;28;20037;-80
2022/01/18 04:55:56;;;;;;;18.35;3.80;;;6.30;99.90;;;;;;5099034;28;20048;-81
2022/01/18 04:58:23;;;;;;;13.60;3.20;;;6.30;99.90;;;;;;5078030;28;20389;-80
2022/01/18 05:00:51;;;;;;;13.02;2.88;;;6.30;99.90;;;;;;5078905;28;20051;-76
2022/01/18 05:03:17;;;;;;;15.52;3.25;;;6.20;99.90;;;;;;5078000;28;20044;-79
2022/01/18 05:05:44;;;;;;;10.23;2.67;;;6.30;99.90;;;;;;5078458;28;20077;-78
2022/01/18 05:08:14;;;;;;;10.52;3.08;;;6.20;99.90;;;;;;5078576;28;20052;-76
2022/01/18 05:10:41;;;;;;;14.98;3.15;;;6.20;99.90;;;;;;5077752;28;20040;-78
2022/01/18 05:13:18;;;;;;;12.80;3.28;;;6.20;99.90;;;;;;5087710;28;20087;-78
2022/01/18 05:15:51;;;;;;;15.85;3.83;;;6.20;99.90;;;;;;5096564;28;20044;-80
2022/01/18 05:21:15;;;;;;;12.40;3.17;;;6.10;99.90;;;;;;5092888;28;20077;-80
2022/01/18 05:23:41;;;;;;;15.32;3.42;;;6.20;99.90;;;;;;5086027;28;20056;-79
2022/01/18 05:26:07;;;;;;;10.38;2.83;;;6.20;99.90;;;;;;5077151;28;20504;-80
2022/01/18 05:28:32;;;;;;;13.35;3.90;;;6.20;99.90;;;;;;5076090;28;20063;-77
2022/01/18 05:30:58;;;;;;;14.73;4.13;;;6.20;99.90;;;;;;5082667;28;20055;-78
2022/01/18 05:33:25;;;;;;;16.80;4.05;;;6.10;99.90;;;;;;5078260;28;20045;-79
2022/01/18 05:35:51;;;;;;;11.93;3.10;;;6.10;99.90;;;;;;5092052;28;20070;-80
2022/01/18 05:38:16;;;;;;;13.85;3.80;;;6.10;99.90;;;;;;5079851;28;20045;-78
2022/01/18 05:40:42;;;;;;;15.88;4.18;;;6.10;99.90;;;;;;5096360;28;20040;-79
2022/01/18 05:43:08;;;;;;;18.63;3.80;;;6.10;99.90;;;;;;5077910;28;20058;-78
2022/01/18 05:45:34;;;;;;;14.68;3.72;;;6.10;99.90;;;;;;5075576;28;20048;-78
2022/01/18 05:47:59;;;;;;;12.38;4.15;;;6.10;99.90;;;;;;5078516;28;20057;-80
2022/01/18 05:50:25;;;;;;;15.57;4.18;;;6.10;99.90;;;;;;5085071;28;20052;-79
2022/01/18 05:52:51;;;;;;;11.38;5.10;;;6.10;99.90;;;;;;5094043;28;20051;-80
2022/01/18 05:55:17;;;;;;;12.23;4.03;;;6.10;99.90;;;;;;5084634;28;20048;-80
2022/01/18 05:57:43;;;;;;;12.90;4.20;;;6.00;99.90;;;;;;5081152;28;20036;-80
2022/01/18 06:00:18;;;;;;;15.45;3.88;;;6.10;99.90;;;;;;5080395;28;20476;-80
2022/01/18 06:02:53;;;;;;;14.13;3.70;;;6.00;99.90;;;;;;5079029;28;20056;-80
2022/01/18 06:08:03;;;;;;;11.88;4.65;;;6.00;99.90;;;;;;5079535;28;20295;-80
2022/01/18 06:10:29;;;;;;;13.02;3.53;;;6.00;99.90;;;;;;5078890;28;20079;-81
2022/01/18 06:12:55;;;;;;;11.85;3.22;;;5.90;99.90;;;;;;5094080;28;20047;-79
2022/01/18 06:15:21;;;;;;;13.70;3.88;;;5.90;99.90;;;;;;5099409;28;20090;-79
2022/01/18 06:17:47;;;;;;;16.33;3.80;;;5.90;99.90;;;;;;5089767;28;20040;-79
2022/01/18 06:20:13;;;;;;;13.35;3.90;;;5.90;99.90;;;;;;5084022;28;20051;-80
2022/01/18 06:22:39;;;;;;;12.60;4.93;;;5.90;99.90;;;;;;5081610;28;20052;-80
2022/01/18 06:25:06;;;;;;;13.70;3.70;;;5.80;99.90;;;;;;5081661;28;20522;-80
2022/01/18 06:27:32;;;;;;;10.25;3.70;;;5.80;99.90;;;;;;5079425;28;20082;-80
2022/01/18 06:29:58;;;;;;;16.27;3.50;;;5.80;99.90;;;;;;5080951;28;20051;-80
2022/01/18 06:32:24;;;;;;;14.23;3.10;;;5.80;99.90;;;;;;5091726;28;20869;-80
2022/01/18 06:34:50;;;;;;;18.90;3.63;;;5.80;99.90;;;;;;5090948;28;20052;-80
2022/01/18 06:37:16;;;;;;;9.32;2.95;;;5.90;99.90;;;;;;5080249;28;20066;-80
2022/01/18 06:39:42;;;;;;;12.18;3.88;;;5.80;99.90;;;;;;5090456;28;20072;-81
2022/01/18 06:42:14;;;;;;;14.32;2.95;;;5.80;99.90;;;;;;5083477;28;20040;-81
2022/01/18 06:44:40;;;;;;;19.90;3.55;;;5.80;99.90;;;;;;5086444;28;20086;-82
2022/01/18 06:47:06;;;;;;;13.63;3.58;;;5.80;99.90;;;;;;5084590;28;20084;-81
2022/01/18 06:49:32;;;;;;;12.65;3.03;;;5.80;99.90;;;;;;5077843;28;20055;-81
2022/01/18 06:51:57;;;;;;;10.25;3.10;;;5.80;99.90;;;;;;5081214;28;20432;-81
2022/01/18 06:54:23;;;;;;;15.13;3.10;;;6.10;99.90;;;;;;5082102;28;20052;-81
2022/01/18 06:56:50;;;;;;;12.25;2.85;;;5.80;99.90;;;;;;5085962;28;20094;-81
2022/01/18 06:59:17;;;;;;;12.82;2.55;;;5.80;99.90;;;;;;5079993;28;20048;-77
2022/01/18 07:01:43;;;;;;;11.45;2.50;;;5.80;99.90;;;;;;5081788;28;20051;-78
2022/01/18 07:04:08;;;;;;;13.18;2.65;;;5.80;99.90;;;;;;5092259;28;20068;-77
2022/01/18 07:06:34;;;;;;;13.88;3.30;;;5.90;99.90;;;;;;5084009;28;20032;-78
2022/01/18 07:09:01;;;;;;;10.95;2.85;;;5.90;99.90;;;;;;5078531;28;20051;-77
2022/01/18 07:11:26;;;;;;;9.30;2.80;;;5.90;99.90;;;;;;5077326;28;20076;-77
2022/01/18 07:13:52;;;;;;;8.52;2.42;;;5.80;99.90;;;;;;5079303;28;20055;-77
2022/01/18 07:16:18;;;;;;;16.63;3.00;;;5.80;99.90;;;;;;5079624;28;20047;-77
2022/01/18 07:18:44;;;;;;;10.50;2.90;;;5.80;99.90;;;;;;5091730;28;20044;-77
2022/01/18 07:21:10;;;;;;;8.32;2.50;;;5.80;99.90;;;;;;5092801;28;20036;-77
2022/01/18 07:23:37;;;;;;;15.18;2.33;;;5.80;99.90;;;;;;5098068;28;20105;-77
2022/01/18 07:26:02;;;;;;;13.57;3.47;;;5.80;99.90;;;;;;5081458;28;20044;-77
2022/01/18 07:28:28;;;;;;;12.50;2.70;;;5.70;99.90;;;;;;5084239;28;20073;-77
2022/01/18 07:30:54;;;;;;;14.10;3.28;;;5.70;99.90;;;;;;5087734;28;20040;-76
2022/01/18 07:33:20;;;;;;;9.52;2.78;;;5.80;99.90;;;;;;5099168;28;20044;-77
2022/01/18 07:35:47;;;;;;;9.75;2.78;;;5.70;99.90;;;;;;5100042;28;20368;-76
2022/01/18 07:38:17;;;;;;;13.90;2.60;;;5.70;99.90;;;;;;5099912;28;20044;-76
2022/01/18 07:40:46;;;;;;;14.82;3.03;;;5.70;99.90;;;;;;5082323;28;20068;-77
2022/01/18 07:43:15;;;;;;;18.77;4.82;;;5.80;99.90;;;;;;5079720;28;20053;-77
2022/01/18 07:45:42;;;;;;;10.95;3.03;;;5.70;99.90;;;;;;5078412;28;20044;-77
2022/01/18 07:48:08;;;;;;;14.85;2.67;;;5.70;99.90;;;;;;5078013;28;20170;-77
2022/01/18 07:50:34;;;;;;;12.65;2.90;;;5.80;99.90;;;;;;5080462;28;20037;-78
2022/01/18 07:53:00;;;;;;;9.73;3.38;;;5.70;99.90;;;;;;5089526;28;20103;-79
2022/01/18 07:55:26;;;;;;;8.50;2.38;;;5.70;99.90;;;;;;5105714;28;20079;-78
2022/01/18 07:57:52;;;;;;;14.75;2.67;;;5.80;99.90;;;;;;5081840;28;20032;-79
2022/01/18 08:00:18;;;;;;;8.63;2.80;;;5.80;99.90;;;;;;5092074;28;20056;-80
2022/01/18 08:02:44;;;;;;;8.63;2.40;;;5.70;99.90;;;;;;5078003;28;20076;-80
2022/01/18 08:05:12;;;;;;;10.32;3.30;;;5.80;99.90;;;;;;5084249;28;20065;-79
2022/01/18 08:07:38;;;;;;;7.65;2.17;;;5.80;99.90;;;;;;5084004;28;20087;-80
2022/01/18 08:10:06;;;;;;;11.15;2.30;;;5.80;99.90;;;;;;5095881;28;20040;-80
2022/01/18 08:12:32;;;;;;;13.77;2.47;;;5.80;99.90;;;;;;5099509;28;20067;-79
2022/01/18 08:15:11;;;;;;;10.80;2.20;;;5.80;99.90;;;;;;5085150;28;20047;-78
2022/01/18 08:17:37;;;;;;;7.13;2.53;;;5.80;99.90;;;;;;5086346;28;20048;-78
2022/01/18 08:20:03;;;;;;;9.50;2.60;;;5.90;99.90;;;;;;5086535;28;20085;-78
2022/01/18 08:22:29;;;;;;;11.23;3.33;;;5.80;99.90;;;;;;5090612;28;20534;-77
2022/01/18 08:24:54;;;;;;;8.30;2.40;;;5.90;99.90;;;;;;5077795;28;20040;-77
2022/01/18 08:27:21;;;;;;;12.90;2.80;;;5.80;99.90;;;;;;5093976;28;20047;-78
2022/01/18 08:29:47;;;;;;;10.77;2.60;;;5.80;99.90;;;;;;5098149;28;20067;-78
2022/01/18 08:32:13;;;;;;;9.38;2.65;;;5.80;99.90;;;;;;5100616;28;20372;-78
2022/01/18 08:34:39;;;;;;;13.88;2.90;;;5.90;99.90;;;;;;5097010;28;20058;-78
2022/01/18 08:37:05;;;;;;;10.80;2.97;;;5.90;99.90;;;;;;5089839;28;20123;-78
2022/01/18 08:39:30;;;;;;;10.15;2.70;;;5.90;99.90;;;;;;5098764;28;20047;-78
2022/01/18 08:41:56;;;;;;;12.27;3.63;;;5.90;99.90;;;;;;5085225;28;20036;-78
2022/01/18 08:44:22;;;;;;;8.25;2.35;;;5.90;99.90;;;;;;5097396;28;20048;-77
2022/01/18 08:46:48;;;;;;;14.32;3.70;;;5.90;99.90;;;;;;5085730;28;20067;-77
2022/01/18 08:49:14;;;;;;;11.88;3.08;;;5.90;99.90;;;;;;5084184;28;20047;-77
2022/01/18 08:51:40;;;;;;;8.75;3.20;;;6.00;99.90;;;;;;5086942;28;20045;-77
2022/01/18 08:54:05;;;;;;;12.50;3.28;;;6.00;99.90;;;;;;5083383;28;20036;-76
2022/01/18 08:56:31;;;;;;;15.43;4.25;;;6.00;99.90;;;;;;5078419;28;21924;-77
2022/01/18 08:58:57;;;;;;;11.25;3.47;;;6.00;99.90;;;;;;5084375;28;20103;-77
2022/01/18 09:01:23;;;;;;;13.90;3.60;;;6.00;99.90;;;;;;5077845;28;20045;-76
2022/01/18 09:03:50;;;;;;;11.95;3.92;;;6.00;99.90;;;;;;5090108;28;20044;-76
2022/01/18 09:06:18;;;;;;;9.85;3.80;;;6.00;99.90;;;;;;5085835;28;20063;-77
2022/01/18 09:08:45;;;;;;;12.35;4.18;;;6.00;99.90;;;;;;5098756;28;20044;-74
2022/01/18 09:11:11;;;;;;;13.23;4.13;;;6.10;99.90;;;;;;5083948;28;20075;-76
2022/01/18 09:13:39;;;;;;;24.73;3.78;;;6.00;99.90;;;;;;5078699;28;20036;-80
2022/01/18 09:16:10;;;;;;;16.92;4.32;;;6.00;99.90;;;;;;5090561;28;20372;-79
2022/01/18 09:18:37;;;;;;;13.30;3.60;;;6.10;99.90;;;;;;5087668;28;20059;-78
2022/01/18 09:21:04;;;;;;;13.95;4.70;;;6.00;99.90;;;;;;5078055;28;20044;-79
2022/01/18 09:23:29;;;;;;;15.65;3.67;;;6.00;99.90;;;;;;5110849;28;20040;-80
2022/01/18 09:25:55;;;;;;;15.75;4.28;;;6.00;99.90;;;;;;5107717;28;20040;-80
2022/01/18 09:28:21;;;;;;;13.75;3.90;;;6.00;99.90;;;;;;5092362;28;20047;-81
2022/01/18 09:30:47;;;;;;;14.75;4.38;;;6.00;99.90;;;;;;5094890;28;20071;-79
2022/01/18 09:33:13;;;;;;;13.20;5.50;;;6.00;99.90;;;;;;5106614;28;20036;-80
2022/01/18 09:35:39;;;;;;;11.48;4.47;;;6.10;99.90;;;;;;5100732;28;20412;-80
2022/01/18 09:38:05;;;;;;;15.43;4.22;;;6.10;99.90;;;;;;5101446;28;20046;-78
2022/01/18 09:40:36;;;;;;;14.98;4.53;;;6.10;99.90;;;;;;5094426;28;20071;-76
2022/01/18 09:43:08;;;;;;;12.85;4.25;;;6.10;99.90;;;;;;5082049;28;20411;-79
2022/01/18 09:45:34;;;;;;;15.23;4.65;;;6.10;99.90;;;;;;5079350;28;20037;-79
2022/01/18 09:48:00;;;;;;;19.60;6.13;;;6.10;99.90;;;;;;5097864;28;20091;-79
2022/01/18 09:50:31;;;;;;;13.02;4.57;;;6.10;99.90;;;;;;5087747;28;20033;-77
2022/01/18 09:52:58;;;;;;;11.02;3.90;;;6.10;99.90;;;;;;5082036;28;20084;-79
2022/01/18 09:55:29;;;;;;;16.95;5.00;;;6.10;99.90;;;;;;5106165;28;20042;-79
2022/01/18 09:57:56;;;;;;;14.95;4.72;;;6.10;99.90;;;;;;5081499;28;20059;-81
2022/01/18 10:00:25;;;;;;;16.30;4.95;;;6.10;99.90;;;;;;5085957;28;20032;-79
2022/01/18 10:02:50;;;;;;;15.30;5.15;;;6.10;99.90;;;;;;5093918;28;20043;-77
2022/01/18 10:05:32;;;;;;;13.48;4.90;;;6.10;99.90;;;;;;5087764;28;20544;-80
2022/01/18 10:08:02;;;;;;;13.93;5.53;;;6.10;99.90;;;;;;5096154;28;20052;-80
2022/01/18 10:10:35;;;;;;;14.73;4.53;;;6.20;99.90;;;;;;5080341;28;20119;-80
2022/01/18 10:13:01;;;;;;;16.70;4.90;;;6.20;99.90;;;;;;5079844;28;20057;-79
2022/01/18 10:15:27;;;;;;;14.27;5.65;;;6.20;99.90;;;;;;5061090;28;20496;-79
2022/01/18 10:18:06;;;;;;;14.45;4.20;;;6.30;99.90;;;;;;5091439;28;20052;-79
2022/01/18 10:20:46;;;;;;;16.52;4.72;;;6.30;99.90;;;;;;5099376;28;20463;-79
2022/01/18 10:23:21;;;;;;;16.48;4.97;;;6.30;99.90;;;;;;5100091;28;20051;-78
2022/01/18 10:25:46;;;;;;;13.70;4.95;;;6.40;99.90;;;;;;5082291;28;20041;-78
2022/01/18 10:28:32;;;;;;;15.57;4.80;;;6.40;99.90;;;;;;5079359;28;20541;-78
2022/01/18 10:31:03;;;;;;;18.02;5.38;;;6.40;99.90;;;;;;5081912;28;20053;-80
2022/01/18 10:33:35;;;;;;;17.08;5.78;;;6.40;99.90;;;;;;5115987;28;20066;-79
2022/01/18 10:36:12;;;;;;;14.98;4.75;;;6.40;99.90;;;;;;5100260;28;20040;-80
2022/01/18 10:38:50;;;;;;;11.35;3.90;;;6.50;99.90;;;;;;5089404;28;20096;-80
2022/01/18 10:41:24;;;;;;;12.13;4.68;;;6.50;99.90;;;;;;5079395;28;20500;-78
2022/01/18 10:44:13;;;;;;;15.23;4.97;;;6.60;99.90;;;;;;5079254;28;20060;-79
2022/01/18 10:46:56;;;;;;;14.27;5.00;;;6.60;99.90;;;;;;5080162;28;20071;-79
2022/01/18 10:49:39;;;;;;;10.77;4.57;;;6.60;99.90;;;;;;5081286;28;20096;-78
2022/01/18 10:52:10;;;;;;;12.77;4.35;;;6.60;99.90;;;;;;5088750;28;20075;-77
2022/01/18 10:54:42;;;;;;;12.77;4.97;;;6.60;99.90;;;;;;5090575;28;20100;-79
2022/01/18 10:57:11;;;;;;;15.27;5.43;;;6.60;99.90;;;;;;5104362;28;20041;-78
2022/01/18 10:59:38;;;;;;;11.82;4.35;;;6.70;99.90;;;;;;5077903;28;20045;-77
2022/01/18 11:02:12;;;;;;;13.23;4.40;;;6.60;99.90;;;;;;5077300;28;20040;-80
2022/01/18 11:04:40;;;;;;;14.00;4.20;;;6.60;99.90;;;;;;5083144;28;20052;-78
2022/01/18 11:07:06;;;;;;;15.38;4.78;;;6.60;99.90;;;;;;5087307;28;20041;-80
2022/01/18 11:09:33;;;;;;;14.77;4.85;;;6.70;99.90;;;;;;5099350;28;20065;-80
2022/01/18 11:12:00;;;;;;;11.88;4.95;;;6.70;99.90;;;;;;5098788;28;20055;-80
2022/01/18 11:14:26;;;;;;;11.60;4.85;;;6.80;99.90;;;;;;5093692;28;20040;-77
2022/01/18 11:16:56;;;;;;;13.85;4.60;;;6.80;99.90;;;;;;5098467;28;20047;-79
2022/01/18 11:21:53;;;;;;;10.00;4.93;;;6.80;99.90;;;;;;5080870;28;20048;-77
2022/01/18 11:24:19;;;;;;;11.43;4.38;;;6.70;99.90;;;;;;5085047;28;20076;-79
2022/01/18 11:26:47;;;;;;;10.52;3.60;;;6.80;99.90;;;;;;5078815;28;20059;-80
2022/01/18 11:29:16;;;;;;;13.98;4.97;;;6.80;99.90;;;;;;5077692;28;20056;-79
2022/01/18 11:31:49;;;;;;;15.77;5.32;;;6.80;99.90;;;;;;5097680;28;20044;-78
2022/01/18 11:34:36;;;;;;;14.75;4.32;;;6.80;99.90;;;;;;5102728;28;20346;-79
2022/01/18 11:37:32;;;;;;;12.93;4.85;;;7.10;99.90;;;;;;5084014;28;20123;-79
2022/01/18 11:40:00;;;;;;;13.02;4.25;;;6.70;99.90;;;;;;5095997;28;20047;-80
2022/01/18 11:42:51;;;;;;;12.60;4.78;;;6.70;99.90;;;;;;5091084;28;20048;-80
2022/01/18 11:45:33;;;;;;;15.25;4.35;;;6.80;99.90;;;;;;5087488;28;20048;-78
2022/01/18 11:48:13;;;;;;;9.95;3.40;;;6.80;99.90;;;;;;5098231;28;20116;-80
2022/01/18 11:50:43;;;;;;;11.18;4.25;;;6.80;99.90;;;;;;5076865;28;20048;-79
2022/01/18 11:54:05;;;;;;;12.38;4.90;;;6.90;99.90;;;;;;5077412;28;20052;-77
2022/01/18 11:56:35;;;;;;;7.20;2.40;;;7.00;99.90;;;;;;5117153;28;20117;-75
2022/01/18 11:59:16;;;;;;;7.78;2.90;;;6.90;99.90;;;;;;5097356;28;20610;-75
2022/01/18 12:01:52;;;;;;;6.80;2.83;;;6.90;99.90;;;;;;5091869;28;20080;-77
2022/01/18 12:04:37;;;;;;;;;;;6.90;99.90;;;;;;5082183;28;20108;-76
2022/01/18 12:07:02;;;;;;;7.35;3.05;;;6.90;99.90;;;;;;5076519;28;19920;-73
2022/01/18 12:09:47;;;;;;;7.32;2.50;;;6.90;99.90;;;;;;5079165;28;20054;-76
2022/01/18 12:12:42;;;;;;;7.40;1.95;;;6.90;99.90;;;;;;5084187;28;20070;-76
2022/01/18 12:15:19;;;;;;;10.88;2.70;;;6.80;99.90;;;;;;5097481;28;20427;-76
2022/01/18 12:18:01;;;;;;;11.05;3.20;;;6.80;99.90;;;;;;5096912;28;20057;-75
2022/01/18 12:20:37;;;;;;;9.25;2.90;;;6.80;99.90;;;;;;5079327;28;20515;-77
2022/01/18 12:23:07;;;;;;;9.55;3.58;;;6.80;99.90;;;;;;5086043;28;20063;-76
2022/01/18 12:25:36;;;;;;;11.18;3.38;;;6.80;99.90;;;;;;5087704;28;20036;-75
2022/01/18 12:34:32;;;;;;;8.85;2.83;;;6.80;99.90;;;;;;5079198;28;20052;-74
2022/01/18 12:39:55;;;;;;;8.32;2.70;;;6.80;99.90;;;;;;5080737;28;20114;-73
2022/01/18 12:45:16;;;;;;;10.95;3.55;;;6.80;99.90;;;;;;5090567;28;20130;-74
2022/01/18 12:47:58;;;;;;;9.55;2.83;;;6.80;99.90;;;;;;5099056;28;20074;-74
2022/01/18 12:50:36;;;;;;;13.43;2.95;;;6.80;99.90;;;;;;5076929;28;20079;-76
2022/01/18 12:53:07;;;;;;;10.48;3.85;;;6.80;99.90;;;;;;5076476;28;20086;-72
2022/01/18 12:55:43;;;;;;;9.95;2.78;;;6.80;99.90;;;;;;5086023;28;20056;-74
2022/01/18 12:58:17;;;;;;;10.15;2.53;;;6.80;99.90;;;;;;5081516;28;20044;-75
2022/01/18 13:01:00;;;;;;;10.98;5.00;;;6.80;99.90;;;;;;5077605;28;20052;-75
2022/01/18 13:03:29;;;;;;;13.38;2.53;;;6.70;99.90;;;;;;5079973;28;20052;-73
2022/01/18 13:05:57;;;;;;;8.63;2.55;;;6.60;99.90;;;;;;5087722;28;20045;-74
2022/01/18 13:08:39;;;;;;;11.60;3.00;;;6.70;99.90;;;;;;5100559;28;20119;-74
2022/01/18 13:11:05;;;;;;;10.05;3.33;;;6.70;99.90;;;;;;5095290;28;20040;-73
2022/01/18 13:13:32;;;;;;;8.05;2.95;;;6.60;99.90;;;;;;5080957;28;20155;-75
2022/01/18 13:24:18;;;;;;;8.15;2.45;;;6.60;99.90;;;;;;5089697;28;20099;-78
2022/01/18 13:26:57;;;;;;;6.65;2.40;;;6.60;99.90;;;;;;5098791;28;20100;-74
2022/01/18 13:29:27;;;;;;;9.25;2.55;;;6.60;99.90;;;;;;5085282;28;20059;-72
2022/01/18 13:32:10;;;;;;;9.32;2.67;;;6.60;99.90;;;;;;5098964;28;20074;-72
2022/01/18 13:34:39;;;;;;;7.15;3.85;;;6.60;99.90;;;;;;5102140;28;20623;-72
2022/01/18 13:37:08;;;;;;;11.40;2.95;;;6.50;99.90;;;;;;5094561;28;20044;-73
2022/01/18 13:39:39;;;;;;;8.30;3.03;;;6.50;99.90;;;;;;5099757;28;20024;-73
2022/01/18 13:42:09;;;;;;;10.55;3.50;;;6.50;99.90;;;;;;5096436;28;20048;-73
2022/01/18 13:44:35;;;;;;;6.82;2.78;;;6.50;99.90;;;;;;5082292;28;20041;-75
2022/01/18 13:47:15;;;;;;;11.55;2.95;;;6.50;99.90;;;;;;5083715;28;20048;-76
2022/01/18 13:49:41;;;;;;;9.13;3.45;;;6.40;99.90;;;;;;5087895;28;20079;-73
2022/01/18 13:52:10;;;;;;;8.23;2.83;;;6.50;99.90;;;;;;5087515;28;20048;-74
2022/01/18 13:54:50;;;;;;;9.52;3.00;;;6.40;99.90;;;;;;5089765;28;20480;-74
2022/01/18 13:57:18;;;;;;;10.30;2.97;;;6.40;99.90;;;;;;5099991;28;20060;-75
2022/01/18 13:59:45;;;;;;;8.98;3.13;;;6.40;99.90;;;;;;5098095;28;20154;-77
2022/01/18 14:02:17;;;;;;;10.50;2.60;;;6.50;99.90;;;;;;5086991;28;20087;-77
2022/01/18 14:04:45;;;;;;;8.23;2.72;;;6.50;99.90;;;;;;5078950;28;20050;-74
2022/01/18 14:07:12;;;;;;;7.65;2.42;;;6.60;99.90;;;;;;5087712;28;20032;-74
2022/01/18 14:09:38;;;;;;;9.40;3.00;;;6.60;99.90;;;;;;5095118;28;20040;-74
2022/01/18 14:12:06;;;;;;;8.15;2.50;;;6.60;99.90;;;;;;5098424;28;20051;-73
2022/01/18 14:14:35;;;;;;;9.00;3.13;;;6.50;99.90;;;;;;5080086;28;20048;-73
2022/01/18 14:17:05;;;;;;;10.27;3.55;;;6.40;99.90;;;;;;5094140;28;20139;-73
2022/01/18 14:19:34;;;;;;;10.18;2.50;;;6.30;99.90;;;;;;5086348;28;20084;-75
2022/01/18 14:22:23;;;;;;;8.18;2.90;;;6.30;99.90;;;;;;5081576;28;20049;-76